Main page
METAR-TAF:

METAR-TAF

Airports :

V. C. Bird International Airport

Antigua, Antigua and Barbuda

latitude: 17-07N, longitude: 061-47W, elevation: 8 m

Current weather observation

The report was made 24 minutes ago, at 09:00 UTC
Wind 4 kt from the Southeast, varying between East/Southeast and South
Temperature 27°C
Humidity 79%
Pressure 1014 hPa
Visibility 10 km or more
Scattered clouds at a height of 1800 ft

METAR: TAPA 210900Z 13004KT 110V180 9999 SCT018 27/23 Q1014 NOSIG

Time: 05:24 (09:24 UTC)

Forecast

The report was made 4 hours and 24 minutes ago, at 05:00 UTC
Forecast valid from 21 at 06 UTC to 22 at 06 UTC
Wind 10 kt from the East/Southeast
Visibility 10 km or more
Scattered clouds at a height of 2000 ft

TAF: TAPA 210500Z 2106/2206 11010KT 9999 SCT020

Weather observations and forecasts of more than 4000 airports (METAR and TAF reports).

The available stations are represented by yellow and red dots on the map.

Hover mouse over dot to see the name of the station.

Then click to see weather observations and forecasts.

To change the map : click on the green buttons with a black cross to zoom in, on the green button with a dash to zoom out, or on the green arrows for adjacent maps.


METAR-TAF: